Estación Meteorológica Peña el Pijo (Robertgarden) [ 04/19/21 05:10:59 CEST ]

Fecha Hora Presion(HPa) Temp (°C) Humedad % Rocio (°C) Viento ( m/s) Direccion Lluvia 1Hora(mm) Lluvia 24H(mm) LLuvia Total(mm)
2021-Apr-14 01:09:47 1010.100 8.4 84 5.8 - N     89.61
2021-Apr-14 02:09:20 1009.500 8.1 85 5.7 - N     89.61
2021-Apr-14 03:09:47 1009.000 7.9 86 5.7 - N     89.61
2021-Apr-14 04:09:50 1008.400 7.4 88 5.6 - N     89.61
2021-Apr-14 05:10:08 1008.100 7.2 89 5.5 - N     89.61
2021-Apr-14 06:09:32 1007.500 7.3 89 5.6 - N     89.61
2021-Apr-14 07:09:27 1007.300 7.6 89 5.9 - N     89.61
2021-Apr-14 08:09:32 1007.500 7.9 89 6.2 - N     89.61
2021-Apr-14 09:09:11 1007.200 9.2 86 7.0 - N     89.61
2021-Apr-14 10:09:32 1007.200 10.3 81 7.2 - N     89.61
2021-Apr-14 11:09:48 1007.700 9.4 87 7.3 - N     89.61
2021-Apr-14 12:09:17 1007.200 12.3 73 7.6 - N     89.61
2021-Apr-14 13:09:38 1006.800 18.3 40 4.5 - N     89.61
2021-Apr-14 14:10:05 1006.200 17.9 39 3.7 - N     89.61
2021-Apr-14 15:09:27 1005.900 17.9 38 3.3 - N     89.61
2021-Apr-14 16:09:25 1005.300 17.3 39 3.2 - N     89.61
2021-Apr-14 17:09:32 1005.100 14.9 42 2.0 - N     89.61
2021-Apr-14 18:09:53 1005.200 13.6 56 5.0 - N     89.61
2021-Apr-14 19:09:40 1005.400 11.1 75 6.8 - N     89.61
2021-Apr-14 20:09:31 1005.300 9.9 91 8.5 - N     89.61
2021-Apr-14 21:09:31 1005.500 9.3 93 8.2 - N     89.61
2021-Apr-14 22:09:56 1006.000 8.8 94 7.9 - N     89.61
2021-Apr-14 23:09:16 1006.200 7.9 95 7.1 - N     89.61

Temperatura Máxima:18°    Temperatura Mínima:
Presión Máxima:1010.100 Hpa    Presión Mínima:1005.100 Hpa


Volver